sensor_id;sensor_type;location;lat;lon;timestamp;temperature;humidity
15407;DHT22;7802;51.568;6.364;2023-01-15T11:36:34;7.40;99.90
15407;DHT22;7802;51.568;6.364;2023-01-15T11:41:57;6.40;99.90
15407;DHT22;7802;51.568;6.364;2023-01-15T11:44:52;8.10;99.90
15407;DHT22;7802;51.568;6.364;2023-01-15T11:50:52;8.10;99.90
15407;DHT22;7802;51.568;6.364;2023-01-15T11:56:32;8.20;99.90
15407;DHT22;7802;51.568;6.364;2023-01-15T11:59:10;7.90;99.90
15407;DHT22;7802;51.568;6.364;2023-01-15T12:01:50;7.90;99.90
15407;DHT22;7802;51.568;6.364;2023-01-15T12:07:29;8.00;99.90
15407;DHT22;7802;51.568;6.364;2023-01-15T12:16:09;7.70;99.90
15407;DHT22;7802;51.568;6.364;2023-01-15T12:18:57;8.30;99.90
15407;DHT22;7802;51.568;6.364;2023-01-15T12:24:58;8.10;99.90
15407;DHT22;7802;51.568;6.364;2023-01-15T12:36:18;8.10;99.90
15407;DHT22;7802;51.568;6.364;2023-01-15T12:38:49;8.10;99.90
15407;DHT22;7802;51.568;6.364;2023-01-15T12:44:23;8.10;99.90
15407;DHT22;7802;51.568;6.364;2023-01-15T12:47:17;8.10;99.90
15407;DHT22;7802;51.568;6.364;2023-01-15T12:49:50;8.10;99.90
15407;DHT22;7802;51.568;6.364;2023-01-15T12:52:23;8.10;99.90
15407;DHT22;7802;51.568;6.364;2023-01-15T12:58:10;8.10;99.90
15407;DHT22;7802;51.568;6.364;2023-01-15T13:01:02;8.20;99.90
15407;DHT22;7802;51.568;6.364;2023-01-15T13:03:37;8.10;99.90
15407;DHT22;7802;51.568;6.364;2023-01-15T13:06:16;8.10;99.90
15407;DHT22;7802;51.568;6.364;2023-01-15T13:11:41;8.20;99.90
15407;DHT22;7802;51.568;6.364;2023-01-15T13:17:26;8.10;99.90
15407;DHT22;7802;51.568;6.364;2023-01-15T13:20:12;8.10;99.90
15407;DHT22;7802;51.568;6.364;2023-01-15T13:22:48;8.00;99.90
15407;DHT22;7802;51.568;6.364;2023-01-15T13:25:29;8.10;99.90
15407;DHT22;7802;51.568;6.364;2023-01-15T13:28:26;8.10;99.90
15407;DHT22;7802;51.568;6.364;2023-01-15T13:31:04;8.20;99.90
15407;DHT22;7802;51.568;6.364;2023-01-15T13:36:34;8.30;99.90
15407;DHT22;7802;51.568;6.364;2023-01-15T13:39:35;8.20;99.90
15407;DHT22;7802;51.568;6.364;2023-01-15T13:42:03;8.20;99.90
15407;DHT22;7802;51.568;6.364;2023-01-15T13:53:58;8.20;99.90
15407;DHT22;7802;51.568;6.364;2023-01-15T13:56:29;8.30;99.90
15407;DHT22;7802;51.568;6.364;2023-01-15T14:08:25;8.20;99.90
15407;DHT22;7802;51.568;6.364;2023-01-15T14:10:52;8.20;99.90
15407;DHT22;7802;51.568;6.364;2023-01-15T14:13:48;8.10;99.90
15407;DHT22;7802;51.568;6.364;2023-01-15T14:16:35;8.10;99.90
15407;DHT22;7802;51.568;6.364;2023-01-15T14:25:27;7.90;99.90
15407;DHT22;7802;51.568;6.364;2023-01-15T14:28:07;8.10;99.90
15407;DHT22;7802;51.568;6.364;2023-01-15T14:33:54;5.30;99.90
15407;DHT22;7802;51.568;6.364;2023-01-15T14:36:26;7.90;99.90
15407;DHT22;7802;51.568;6.364;2023-01-15T14:38:57;8.00;99.90
15407;DHT22;7802;51.568;6.364;2023-01-15T14:41:26;8.00;99.90
15407;DHT22;7802;51.568;6.364;2023-01-15T14:43:54;8.10;99.90
15407;DHT22;7802;51.568;6.364;2023-01-15T14:49:43;8.10;99.90
15407;DHT22;7802;51.568;6.364;2023-01-15T14:52:15;7.90;99.90
15407;DHT22;7802;51.568;6.364;2023-01-15T14:54:44;8.00;99.90
15407;DHT22;7802;51.568;6.364;2023-01-15T14:57:13;8.00;99.90
15407;DHT22;7802;51.568;6.364;2023-01-15T14:59:46;8.00;99.90
15407;DHT22;7802;51.568;6.364;2023-01-15T15:02:20;7.80;99.90
15407;DHT22;7802;51.568;6.364;2023-01-15T15:04:52;7.80;99.90
15407;DHT22;7802;51.568;6.364;2023-01-15T15:07:21;7.60;99.90
15407;DHT22;7802;51.568;6.364;2023-01-15T15:09:55;7.70;99.90
15407;DHT22;7802;51.568;6.364;2023-01-15T15:12:34;7.50;99.90
15407;DHT22;7802;51.568;6.364;2023-01-15T15:23:30;7.20;99.90
15407;DHT22;7802;51.568;6.364;2023-01-15T15:26:23;7.20;99.90
15407;DHT22;7802;51.568;6.364;2023-01-15T15:28:56;7.10;99.90
15407;DHT22;7802;51.568;6.364;2023-01-15T15:31:24;7.10;99.90
15407;DHT22;7802;51.568;6.364;2023-01-15T15:33:54;7.00;99.90
15407;DHT22;7802;51.568;6.364;2023-01-15T15:36:29;7.00;99.90
15407;DHT22;7802;51.568;6.364;2023-01-15T15:39:01;7.00;99.90
15407;DHT22;7802;51.568;6.364;2023-01-15T15:47:23;5.90;99.90
15407;DHT22;7802;51.568;6.364;2023-01-15T15:50:18;7.10;99.90
15407;DHT22;7802;51.568;6.364;2023-01-15T15:55:43;5.90;99.90
15407;DHT22;7802;51.568;6.364;2023-01-15T15:58:16;7.10;99.90
15407;DHT22;7802;51.568;6.364;2023-01-15T16:03:57;7.00;99.90
15407;DHT22;7802;51.568;6.364;2023-01-15T16:06:26;6.70;99.90
15407;DHT22;7802;51.568;6.364;2023-01-15T16:08:58;6.80;99.90
15407;DHT22;7802;51.568;6.364;2023-01-15T16:11:53;6.80;99.90
15407;DHT22;7802;51.568;6.364;2023-01-15T16:14:34;6.70;99.90
15407;DHT22;7802;51.568;6.364;2023-01-15T16:17:03;6.70;99.90
15407;DHT22;7802;51.568;6.364;2023-01-15T16:25:40;6.60;99.90
15407;DHT22;7802;51.568;6.364;2023-01-15T16:28:21;6.70;99.90
15407;DHT22;7802;51.568;6.364;2023-01-15T16:30:55;6.60;99.90
15407;DHT22;7802;51.568;6.364;2023-01-15T16:33:24;6.60;99.90
15407;DHT22;7802;51.568;6.364;2023-01-15T16:38:47;6.50;99.90
15407;DHT22;7802;51.568;6.364;2023-01-15T16:41:19;6.50;99.90
15407;DHT22;7802;51.568;6.364;2023-01-15T16:53:29;5.20;99.90
15407;DHT22;7802;51.568;6.364;2023-01-15T16:55:57;6.90;99.90
15407;DHT22;7802;51.568;6.364;2023-01-15T16:58:34;6.90;99.90
15407;DHT22;7802;51.568;6.364;2023-01-15T17:01:31;6.90;99.90
15407;DHT22;7802;51.568;6.364;2023-01-15T17:04:00;6.80;99.90
15407;DHT22;7802;51.568;6.364;2023-01-15T17:06:30;6.90;99.90
15407;DHT22;7802;51.568;6.364;2023-01-15T17:08:59;7.00;99.90
15407;DHT22;7802;51.568;6.364;2023-01-15T17:11:28;7.00;99.90
15407;DHT22;7802;51.568;6.364;2023-01-15T17:14:10;7.00;99.90
15407;DHT22;7802;51.568;6.364;2023-01-15T17:19:45;7.00;99.90
15407;DHT22;7802;51.568;6.364;2023-01-15T17:31:29;7.10;99.90
15407;DHT22;7802;51.568;6.364;2023-01-15T17:33:58;7.00;99.90
15407;DHT22;7802;51.568;6.364;2023-01-15T17:36:26;7.00;99.90
15407;DHT22;7802;51.568;6.364;2023-01-15T17:38:54;7.10;99.90
15407;DHT22;7802;51.568;6.364;2023-01-15T17:41:22;7.00;99.90
15407;DHT22;7802;51.568;6.364;2023-01-15T17:47:00;7.10;99.90
15407;DHT22;7802;51.568;6.364;2023-01-15T17:49:56;7.00;99.90
15407;DHT22;7802;51.568;6.364;2023-01-15T17:52:23;7.10;99.90
15407;DHT22;7802;51.568;6.364;2023-01-15T17:54:51;7.10;99.90
15407;DHT22;7802;51.568;6.364;2023-01-15T17:57:43;7.00;99.90
15407;DHT22;7802;51.568;6.364;2023-01-15T18:00:32;7.00;99.90
15407;DHT22;7802;51.568;6.364;2023-01-15T18:03:21;7.00;99.90
15407;DHT22;7802;51.568;6.364;2023-01-15T18:09:06;7.10;99.90
15407;DHT22;7802;51.568;6.364;2023-01-15T18:11:34;7.00;99.90
15407;DHT22;7802;51.568;6.364;2023-01-15T18:14:01;7.00;99.90
15407;DHT22;7802;51.568;6.364;2023-01-15T18:19:15;7.10;99.90
15407;DHT22;7802;51.568;6.364;2023-01-15T18:24:25;7.00;99.90
15407;DHT22;7802;51.568;6.364;2023-01-15T18:26:53;7.00;99.90
15407;DHT22;7802;51.568;6.364;2023-01-15T18:29:21;7.00;99.90
15407;DHT22;7802;51.568;6.364;2023-01-15T18:35:08;7.10;99.90
15407;DHT22;7802;51.568;6.364;2023-01-15T18:37:37;6.90;99.90
15407;DHT22;7802;51.568;6.364;2023-01-15T18:40:05;7.10;99.90
15407;DHT22;7802;51.568;6.364;2023-01-15T18:42:34;7.00;99.90
15407;DHT22;7802;51.568;6.364;2023-01-15T18:45:21;7.10;99.90
15407;DHT22;7802;51.568;6.364;2023-01-15T18:48:07;7.10;99.90
15407;DHT22;7802;51.568;6.364;2023-01-15T18:50:35;7.00;99.90
15407;DHT22;7802;51.568;6.364;2023-01-15T18:53:02;7.00;99.90
15407;DHT22;7802;51.568;6.364;2023-01-15T18:55:30;6.80;99.90
15407;DHT22;7802;51.568;6.364;2023-01-15T18:57:57;6.90;99.90
15407;DHT22;7802;51.568;6.364;2023-01-15T19:00:25;6.80;99.90
15407;DHT22;7802;51.568;6.364;2023-01-15T19:02:52;6.90;99.90
15407;DHT22;7802;51.568;6.364;2023-01-15T19:05:20;6.90;99.90
15407;DHT22;7802;51.568;6.364;2023-01-15T19:07:49;6.90;99.90
15407;DHT22;7802;51.568;6.364;2023-01-15T19:10:18;6.90;99.90
15407;DHT22;7802;51.568;6.364;2023-01-15T19:12:45;6.80;99.90
15407;DHT22;7802;51.568;6.364;2023-01-15T19:15:15;6.70;99.90
15407;DHT22;7802;51.568;6.364;2023-01-15T19:18:02;6.50;99.90
15407;DHT22;7802;51.568;6.364;2023-01-15T19:20:48;6.50;99.90
15407;DHT22;7802;51.568;6.364;2023-01-15T19:23:19;6.30;99.90
15407;DHT22;7802;51.568;6.364;2023-01-15T19:31:29;6.20;99.90
15407;DHT22;7802;51.568;6.364;2023-01-15T19:34:05;6.10;99.90
15407;DHT22;7802;51.568;6.364;2023-01-15T19:36:56;6.00;99.90
15407;DHT22;7802;51.568;6.364;2023-01-15T19:39:25;6.00;99.90
15407;DHT22;7802;51.568;6.364;2023-01-15T19:41:54;5.80;99.90
15407;DHT22;7802;51.568;6.364;2023-01-15T19:44:40;6.00;99.90
15407;DHT22;7802;51.568;6.364;2023-01-15T19:47:39;6.00;99.90
15407;DHT22;7802;51.568;6.364;2023-01-15T19:50:30;5.90;99.90
15407;DHT22;7802;51.568;6.364;2023-01-15T19:52:59;5.90;99.90
15407;DHT22;7802;51.568;6.364;2023-01-15T19:55:30;5.80;99.90
15407;DHT22;7802;51.568;6.364;2023-01-15T20:00:29;5.90;99.90
15407;DHT22;7802;51.568;6.364;2023-01-15T20:02:57;5.90;99.90
15407;DHT22;7802;51.568;6.364;2023-01-15T20:05:25;6.10;99.90
15407;DHT22;7802;51.568;6.364;2023-01-15T20:07:53;6.10;99.90
15407;DHT22;7802;51.568;6.364;2023-01-15T20:10:22;6.10;99.90
15407;DHT22;7802;51.568;6.364;2023-01-15T20:12:51;6.10;99.90
15407;DHT22;7802;51.568;6.364;2023-01-15T20:18:28;5.90;99.90
15407;DHT22;7802;51.568;6.364;2023-01-15T20:21:07;6.10;99.90
15407;DHT22;7802;51.568;6.364;2023-01-15T20:28:41;6.00;99.90
15407;DHT22;7802;51.568;6.364;2023-01-15T20:31:16;5.90;99.90
15407;DHT22;7802;51.568;6.364;2023-01-15T23:21:30;6.40;99.90
15407;DHT22;7802;51.568;6.364;2023-01-15T23:24:00;6.20;99.90
15407;DHT22;7802;51.568;6.364;2023-01-15T23:26:32;6.20;99.90
15407;DHT22;7802;51.568;6.364;2023-01-15T23:31:30;6.50;99.90
15407;DHT22;7802;51.568;6.364;2023-01-15T23:36:55;6.50;99.90
15407;DHT22;7802;51.568;6.364;2023-01-15T23:39:23;6.40;99.90
15407;DHT22;7802;51.568;6.364;2023-01-15T23:41:53;6.40;99.90
15407;DHT22;7802;51.568;6.364;2023-01-15T23:44:39;6.30;99.90
15407;DHT22;7802;51.568;6.364;2023-01-15T23:50:17;6.30;99.90
15407;DHT22;7802;51.568;6.364;2023-01-15T23:55:57;6.30;99.90
15407;DHT22;7802;51.568;6.364;2023-01-15T23:58:30;6.20;99.90
